createdAt,value
2018-07-16T00:01:24.132Z,6.60
2018-07-16T00:03:52.143Z,7.20
2018-07-16T00:06:20.200Z,6.90
2018-07-16T00:08:48.329Z,7.10
2018-07-16T00:11:16.561Z,7.60
2018-07-16T00:13:44.698Z,7.90
2018-07-16T00:16:12.617Z,7.23
2018-07-16T00:18:40.617Z,7.90
2018-07-16T00:21:08.612Z,7.40
2018-07-16T00:23:36.558Z,7.50
2018-07-16T00:26:04.489Z,8.07
2018-07-16T00:28:32.563Z,7.70
2018-07-16T00:31:00.892Z,6.30
2018-07-16T00:33:29.081Z,7.00
2018-07-16T00:35:57.361Z,7.10
2018-07-16T00:38:25.761Z,6.73
2018-07-16T00:40:54.113Z,7.00
2018-07-16T00:43:22.380Z,7.40
2018-07-16T00:45:50.493Z,6.70
2018-07-16T00:48:18.488Z,6.70
2018-07-16T00:50:46.430Z,7.67
2018-07-16T00:53:14.384Z,6.23
2018-07-16T00:55:42.327Z,6.57
2018-07-16T00:58:10.273Z,6.70
2018-07-16T01:00:38.281Z,7.13
2018-07-16T01:03:06.253Z,6.27
2018-07-16T01:05:34.280Z,6.30
2018-07-16T01:08:02.481Z,6.63
2018-07-16T01:10:30.694Z,6.60
2018-07-16T01:12:59.042Z,6.47
2018-07-16T01:15:27.283Z,5.87
2018-07-16T01:17:55.737Z,6.37
2018-07-16T01:20:24.042Z,5.83
2018-07-16T01:22:51.953Z,6.30
2018-07-16T01:25:19.986Z,6.17
2018-07-16T01:27:48.165Z,5.20
2018-07-16T01:30:16.277Z,6.00
2018-07-16T01:32:44.231Z,5.70
2018-07-16T01:35:12.225Z,5.90
2018-07-16T01:37:40.199Z,5.53
2018-07-16T01:40:08.216Z,6.57
2018-07-16T01:42:36.233Z,5.53
2018-07-16T01:45:04.204Z,6.50
2018-07-16T01:47:32.281Z,6.10
2018-07-16T01:50:00.512Z,5.17
2018-07-16T01:52:28.640Z,5.87
2018-07-16T01:54:56.979Z,5.80
2018-07-16T01:57:25.176Z,5.67
2018-07-16T01:59:53.187Z,5.13
2018-07-16T02:02:21.140Z,6.10
2018-07-16T02:04:49.220Z,5.63
2018-07-16T02:07:17.368Z,5.93
2018-07-16T02:09:45.554Z,4.53
2018-07-16T02:12:13.595Z,5.30
2018-07-16T02:14:41.615Z,5.23
2018-07-16T02:17:09.592Z,6.10
2018-07-16T02:19:37.576Z,5.27
2018-07-16T02:22:05.533Z,6.20
2018-07-16T02:24:33.580Z,6.23
2018-07-16T02:27:01.695Z,6.37
2018-07-16T02:29:31.143Z,5.97
2018-07-16T02:31:59.530Z,5.50
2018-07-16T02:34:27.817Z,5.70
2018-07-16T02:36:56.219Z,5.50
2018-07-16T02:39:24.262Z,5.03
2018-07-16T02:41:52.249Z,6.37
2018-07-16T02:44:20.506Z,6.00
2018-07-16T02:46:48.737Z,6.17
2018-07-16T02:49:16.926Z,6.23
2018-07-16T02:51:45.150Z,6.30
2018-07-16T02:54:13.161Z,5.70
2018-07-16T02:56:41.168Z,6.00
2018-07-16T02:59:09.132Z,5.63
2018-07-16T03:01:37.092Z,5.00
2018-07-16T03:04:05.053Z,6.70
2018-07-16T03:06:33.113Z,6.00
2018-07-16T03:09:01.306Z,5.57
2018-07-16T03:11:29.659Z,5.33
2018-07-16T03:13:58.211Z,5.20
2018-07-16T03:16:26.497Z,5.20
2018-07-16T03:18:54.908Z,6.17
2018-07-16T03:21:22.906Z,5.27
2018-07-16T03:23:51.222Z,5.67
2018-07-16T03:26:19.210Z,5.07
2018-07-16T03:28:47.437Z,4.60
2018-07-16T03:31:15.744Z,5.00
2018-07-16T03:33:43.738Z,5.57
2018-07-16T03:36:11.804Z,5.33
2018-07-16T03:38:39.868Z,4.50
2018-07-16T03:41:07.841Z,5.33
2018-07-16T03:43:35.813Z,3.83
2018-07-16T03:46:03.922Z,4.80
2018-07-16T03:48:32.185Z,4.20
2018-07-16T03:51:00.456Z,4.20
2018-07-16T03:53:28.866Z,4.33
2018-07-16T03:55:57.940Z,4.40
2018-07-16T03:58:26.756Z,4.13
2018-07-16T04:00:55.101Z,6.00
2018-07-16T04:03:23.467Z,4.70
2018-07-16T04:05:51.582Z,4.67
2018-07-16T04:08:19.752Z,4.83
2018-07-16T04:10:47.872Z,4.33
2018-07-16T04:13:16.006Z,4.63
2018-07-16T04:15:44.040Z,4.23
2018-07-16T04:18:16.401Z,4.10
2018-07-16T04:20:44.513Z,4.27
2018-07-16T04:23:12.649Z,3.60
2018-07-16T04:25:41.663Z,5.80
2018-07-16T04:28:09.817Z,4.90
2018-07-16T04:30:37.854Z,4.47
2018-07-16T04:33:05.839Z,4.17
2018-07-16T04:35:33.961Z,4.40
2018-07-16T04:38:02.089Z,4.13
2018-07-16T04:40:30.274Z,5.07
2018-07-16T04:42:58.611Z,4.87
2018-07-16T04:45:27.367Z,3.70
2018-07-16T04:47:55.981Z,4.50
2018-07-16T04:50:24.206Z,4.60
2018-07-16T04:52:52.166Z,3.70
2018-07-16T04:55:20.419Z,4.40
2018-07-16T04:57:49.493Z,5.07
2018-07-16T05:00:17.806Z,4.53
2018-07-16T05:02:45.859Z,5.30
2018-07-16T05:05:13.972Z,5.47
2018-07-16T05:07:42.033Z,6.73
2018-07-16T05:10:10.000Z,6.50
2018-07-16T05:12:37.957Z,7.90
2018-07-16T05:15:05.944Z,8.07
2018-07-16T05:17:34.004Z,7.27
2018-07-16T05:20:08.528Z,7.40
2018-07-16T05:22:36.576Z,8.00
2018-07-16T05:25:05.642Z,8.07
2018-07-16T05:27:33.766Z,7.83
2018-07-16T05:30:01.869Z,9.43
2018-07-16T05:32:30.315Z,8.80
2018-07-16T05:34:58.505Z,9.67
2018-07-16T05:37:26.785Z,10.17
2018-07-16T05:39:55.294Z,8.00
2018-07-16T05:42:23.382Z,8.73
2018-07-16T05:44:51.599Z,9.47
2018-07-16T05:47:19.720Z,9.83
2018-07-16T05:49:47.733Z,9.73
2018-07-16T05:52:15.779Z,11.03
2018-07-16T05:54:43.857Z,10.43
2018-07-16T05:57:11.888Z,11.00
2018-07-16T05:59:40.102Z,10.63
2018-07-16T06:02:08.237Z,12.13
2018-07-16T06:04:36.559Z,11.27
2018-07-16T06:07:04.786Z,9.93
2018-07-16T06:09:33.185Z,10.10
2018-07-16T06:12:01.596Z,11.43
2018-07-16T06:14:30.192Z,10.60
2018-07-16T06:16:59.110Z,10.77
2018-07-16T06:19:28.130Z,12.40
2018-07-16T06:21:57.113Z,10.50
2018-07-16T06:24:25.812Z,8.57
2018-07-16T06:26:54.367Z,10.33
2018-07-16T06:29:22.877Z,9.60
2018-07-16T06:31:53.157Z,9.50
2018-07-16T06:34:21.607Z,8.93
2018-07-16T06:36:50.589Z,9.23
2018-07-16T06:39:19.037Z,8.00
2018-07-16T06:41:51.753Z,8.30
2018-07-16T06:44:20.326Z,9.00
2018-07-16T06:46:55.003Z,10.27
2018-07-16T06:49:23.434Z,8.60
2018-07-16T06:51:51.785Z,8.40
2018-07-16T06:54:20.461Z,8.80
2018-07-16T06:56:48.888Z,7.20
2018-07-16T06:59:17.501Z,8.10
2018-07-16T07:01:45.768Z,8.17
2018-07-16T07:04:14.030Z,7.77
2018-07-16T07:06:42.692Z,7.70
2018-07-16T07:09:10.836Z,8.00
2018-07-16T07:11:39.416Z,7.70
2018-07-16T07:14:12.152Z,9.10
2018-07-16T07:16:40.874Z,9.10
2018-07-16T07:19:09.457Z,9.97
2018-07-16T07:21:38.083Z,9.20
2018-07-16T07:24:07.960Z,8.10
2018-07-16T07:26:37.624Z,8.10
2018-07-16T07:29:07.576Z,7.50
2018-07-16T07:31:42.573Z,8.40
2018-07-16T07:34:13.167Z,7.97
2018-07-16T07:36:44.203Z,7.03
2018-07-16T07:39:20.389Z,7.67
2018-07-16T07:41:49.056Z,7.93
2018-07-16T07:44:18.080Z,8.00
2018-07-16T07:46:53.220Z,7.73
2018-07-16T07:49:26.161Z,7.97
2018-07-16T07:51:54.883Z,8.70
2018-07-16T07:54:25.085Z,7.43
2018-07-16T07:56:53.406Z,7.30
2018-07-16T07:59:22.199Z,7.07
2018-07-16T08:01:55.922Z,7.07
2018-07-16T08:04:24.489Z,6.77
2018-07-16T08:06:58.529Z,6.53
2018-07-16T08:09:26.943Z,6.83
2018-07-16T08:11:55.790Z,8.00
2018-07-16T08:14:24.020Z,5.93
2018-07-16T08:16:52.339Z,5.60
2018-07-16T08:19:20.691Z,4.80
2018-07-16T08:21:49.369Z,5.27
2018-07-16T08:24:19.211Z,5.20
2018-07-16T08:26:49.260Z,5.23
2018-07-16T08:29:17.456Z,5.30
2018-07-16T08:31:45.914Z,4.80
2018-07-16T08:34:19.050Z,5.80
2018-07-16T08:36:47.362Z,5.80
2018-07-16T08:39:16.706Z,6.00
2018-07-16T08:41:45.283Z,5.50
2018-07-16T08:44:13.661Z,5.90
2018-07-16T08:46:41.764Z,5.40
2018-07-16T08:49:10.166Z,5.00
2018-07-16T08:51:38.346Z,4.67
2018-07-16T08:54:06.483Z,3.80
2018-07-16T08:56:34.511Z,5.63
2018-07-16T08:59:03.704Z,4.80
2018-07-16T09:01:32.937Z,4.53
2018-07-16T09:04:01.831Z,9.20
2018-07-16T09:06:30.494Z,4.63
2018-07-16T09:08:58.838Z,4.83
2018-07-16T09:11:27.282Z,5.50
2018-07-16T09:13:56.008Z,4.30
2018-07-16T09:16:25.445Z,5.20
2018-07-16T09:18:53.544Z,4.40
2018-07-16T09:21:21.820Z,5.30
2018-07-16T09:23:50.090Z,4.80
2018-07-16T09:26:18.374Z,5.17
2018-07-16T09:28:46.655Z,4.60
2018-07-16T09:31:14.711Z,4.93
2018-07-16T09:33:43.060Z,5.17
2018-07-16T09:36:11.279Z,4.37
2018-07-16T09:38:39.455Z,5.50
2018-07-16T09:41:07.502Z,5.07
2018-07-16T09:43:35.576Z,4.77
2018-07-16T09:46:04.037Z,5.00
2018-07-16T09:48:33.262Z,5.47
2018-07-16T09:51:01.698Z,5.00
2018-07-16T09:53:30.779Z,4.93
2018-07-16T09:56:00.680Z,5.90
2018-07-16T09:58:29.419Z,5.17
2018-07-16T10:01:03.471Z,5.77
2018-07-16T10:03:36.730Z,4.93
2018-07-16T10:06:05.013Z,4.47
2018-07-16T10:08:33.593Z,4.37
2018-07-16T10:11:02.305Z,4.73
2018-07-16T10:13:31.012Z,3.77
2018-07-16T10:16:00.255Z,4.50
2018-07-16T10:18:28.928Z,3.40
2018-07-16T10:20:57.793Z,3.77
2018-07-16T10:23:26.791Z,3.10
2018-07-16T10:25:56.577Z,3.00
2018-07-16T10:28:25.078Z,3.73
2018-07-16T10:30:53.382Z,3.60
2018-07-16T10:33:21.701Z,4.13
2018-07-16T10:35:50.280Z,3.57
2018-07-16T10:38:19.650Z,3.23
2018-07-16T10:40:48.368Z,3.13
2018-07-16T10:43:16.782Z,2.87
2018-07-16T10:45:55.142Z,2.97
2018-07-16T10:48:23.472Z,2.90
2018-07-16T10:53:29.429Z,2.53
2018-07-16T10:55:58.494Z,2.83
2018-07-16T10:58:28.943Z,7.27
2018-07-16T11:00:57.634Z,3.80
2018-07-16T11:03:26.713Z,3.13
2018-07-16T11:08:29.172Z,3.60
2018-07-16T11:10:58.386Z,3.17
2018-07-16T11:13:27.540Z,2.63
2018-07-16T11:15:56.961Z,2.80
2018-07-16T11:18:26.553Z,2.77
2018-07-16T11:20:57.452Z,2.70
2018-07-16T11:23:26.261Z,2.80
2018-07-16T11:25:59.669Z,2.33
2018-07-16T11:31:07.183Z,2.80
2018-07-16T11:33:35.759Z,2.70
2018-07-16T11:36:04.909Z,2.20
2018-07-16T11:38:33.326Z,2.87
2018-07-16T11:41:01.918Z,3.90
2018-07-16T11:43:31.364Z,2.80
2018-07-16T11:46:00.008Z,3.10
2018-07-16T11:48:28.666Z,2.53
2018-07-16T11:50:57.637Z,2.57
2018-07-16T11:53:27.009Z,2.30
2018-07-16T11:55:56.212Z,2.53
2018-07-16T11:58:25.529Z,2.40
2018-07-16T12:00:53.948Z,3.30
2018-07-16T12:03:22.133Z,2.37
2018-07-16T12:05:50.380Z,1.93
2018-07-16T12:08:19.299Z,2.07
2018-07-16T12:10:47.788Z,2.80
2018-07-16T12:13:16.931Z,2.60
2018-07-16T12:15:45.378Z,2.20
2018-07-16T12:18:13.729Z,1.93
2018-07-16T12:20:43.789Z,2.43
2018-07-16T12:23:12.361Z,2.50
2018-07-16T12:28:22.282Z,2.23
2018-07-16T12:30:50.554Z,1.87
2018-07-16T12:33:19.019Z,2.33
2018-07-16T12:35:47.657Z,2.37
2018-07-16T12:38:16.073Z,2.10
2018-07-16T12:40:44.202Z,2.00
2018-07-16T12:43:12.485Z,1.80
2018-07-16T12:45:40.766Z,1.63
2018-07-16T12:48:09.117Z,2.20
2018-07-16T12:50:38.242Z,1.83
2018-07-16T12:55:52.166Z,2.60
2018-07-16T12:58:24.627Z,1.70
2018-07-16T13:00:56.979Z,2.90
2018-07-16T13:03:27.608Z,2.10
2018-07-16T13:05:56.567Z,2.07
2018-07-16T13:13:39.293Z,2.60
2018-07-16T13:16:12.214Z,2.43
2018-07-16T13:18:48.114Z,2.33
2018-07-16T13:21:20.860Z,2.00
2018-07-16T13:26:33.750Z,2.20
2018-07-16T13:29:02.133Z,2.30
2018-07-16T13:31:30.695Z,2.00
2018-07-16T13:34:00.210Z,1.80
2018-07-16T13:36:29.304Z,2.13
2018-07-16T13:38:58.509Z,3.00
2018-07-16T13:41:28.694Z,2.47
2018-07-16T13:43:58.006Z,2.60
2018-07-16T13:46:28.776Z,3.07
2018-07-16T13:48:57.673Z,2.23
2018-07-16T13:51:26.779Z,2.17
2018-07-16T13:53:55.626Z,2.30
2018-07-16T13:56:28.058Z,2.43
2018-07-16T13:58:57.224Z,2.90
2018-07-16T14:01:26.680Z,2.60
2018-07-16T14:03:55.292Z,2.43
2018-07-16T14:06:23.653Z,2.60
2018-07-16T14:08:53.053Z,2.40
2018-07-16T14:11:21.563Z,2.37
2018-07-16T14:13:49.861Z,2.50
2018-07-16T14:16:18.866Z,2.60
2018-07-16T14:18:47.187Z,2.57
2018-07-16T14:21:15.557Z,2.63
2018-07-16T14:23:44.055Z,2.60
2018-07-16T14:26:12.509Z,2.93
2018-07-16T14:28:40.767Z,2.83
2018-07-16T14:31:09.135Z,2.67
2018-07-16T14:33:37.544Z,2.63
2018-07-16T14:36:06.084Z,2.47
2018-07-16T14:38:34.441Z,2.70
2018-07-16T14:41:03.181Z,2.80
2018-07-16T14:43:31.810Z,2.90
2018-07-16T14:48:33.872Z,2.60
2018-07-16T14:51:03.067Z,2.93
2018-07-16T14:53:35.355Z,2.90
2018-07-16T14:56:03.927Z,2.77
2018-07-16T14:58:32.720Z,2.73
2018-07-16T15:01:01.353Z,2.90
2018-07-16T15:03:32.305Z,2.90
2018-07-16T15:06:01.102Z,2.63
2018-07-16T15:08:35.177Z,3.03
2018-07-16T15:11:03.578Z,2.83
2018-07-16T15:13:32.247Z,3.67
2018-07-16T15:16:01.412Z,4.07
2018-07-16T15:18:29.869Z,3.10
2018-07-16T15:20:59.031Z,3.37
2018-07-16T15:23:28.836Z,3.50
2018-07-16T15:25:57.505Z,3.57
2018-07-16T15:28:26.505Z,3.67
2018-07-16T15:30:55.643Z,3.90
2018-07-16T15:33:23.941Z,3.03
2018-07-16T15:35:52.269Z,2.70
2018-07-16T15:38:20.566Z,3.00
2018-07-16T15:40:49.838Z,3.33
2018-07-16T15:43:18.623Z,3.47
2018-07-16T15:45:48.209Z,3.13
2018-07-16T15:48:25.300Z,4.20
2018-07-16T15:50:54.536Z,3.90
2018-07-16T15:53:25.344Z,3.30
2018-07-16T15:55:54.307Z,3.77
2018-07-16T15:58:24.878Z,3.40
2018-07-16T16:00:53.187Z,3.00
2018-07-16T16:03:21.566Z,3.80
2018-07-16T16:05:49.764Z,3.77
2018-07-16T16:08:18.002Z,3.23
2018-07-16T16:10:46.364Z,3.30
2018-07-16T16:13:14.851Z,3.30
2018-07-16T16:15:43.063Z,3.90
2018-07-16T16:18:11.266Z,2.97
2018-07-16T16:20:39.535Z,3.60
2018-07-16T16:23:07.887Z,3.00
2018-07-16T16:25:36.217Z,3.87
2018-07-16T16:28:04.884Z,3.20
2018-07-16T16:30:34.271Z,3.33
2018-07-16T16:33:02.905Z,3.93
2018-07-16T16:35:35.753Z,3.70
2018-07-16T16:40:38.444Z,3.40
2018-07-16T16:43:06.749Z,3.37
2018-07-16T16:45:46.403Z,3.27
2018-07-16T16:48:14.942Z,3.23
2018-07-16T16:50:47.848Z,3.50
2018-07-16T16:53:16.363Z,3.80
2018-07-16T16:55:44.666Z,3.90
2018-07-16T16:58:17.366Z,3.50
2018-07-16T17:00:45.650Z,3.73
2018-07-16T17:03:14.215Z,3.33
2018-07-16T17:05:42.355Z,3.77
2018-07-16T17:08:10.767Z,3.13
2018-07-16T17:10:40.610Z,3.27
2018-07-16T17:13:10.578Z,3.10
2018-07-16T17:15:39.621Z,4.53
2018-07-16T17:18:07.832Z,3.67
2018-07-16T17:23:09.895Z,3.93
2018-07-16T17:25:38.106Z,4.50
2018-07-16T17:28:06.369Z,3.40
2018-07-16T17:30:34.484Z,3.60
2018-07-16T17:33:02.762Z,4.30
2018-07-16T17:35:30.987Z,3.50
2018-07-16T17:37:59.219Z,4.07
2018-07-16T17:40:27.547Z,5.10
2018-07-16T17:42:55.820Z,4.10
2018-07-16T17:45:27.212Z,4.50
2018-07-16T17:47:55.589Z,4.90
2018-07-16T17:50:23.917Z,5.20
2018-07-16T17:52:52.300Z,4.33
2018-07-16T17:55:21.110Z,5.20
2018-07-16T17:57:49.406Z,4.60
2018-07-16T18:00:18.262Z,3.90
2018-07-16T18:02:46.578Z,4.43
2018-07-16T18:05:14.671Z,4.27
2018-07-16T18:07:42.665Z,3.93
2018-07-16T18:10:11.805Z,4.50
2018-07-16T18:12:40.021Z,4.17
2018-07-16T18:15:08.510Z,4.20
2018-07-16T18:17:36.654Z,4.90
2018-07-16T18:20:05.399Z,5.57
2018-07-16T18:22:33.783Z,3.97
2018-07-16T18:25:02.249Z,4.30
2018-07-16T18:27:30.955Z,4.30
2018-07-16T18:29:59.328Z,5.40
2018-07-16T18:32:28.794Z,4.17
2018-07-16T18:34:56.994Z,4.60
2018-07-16T18:37:25.687Z,4.90
2018-07-16T18:39:53.954Z,5.07
2018-07-16T18:42:22.519Z,5.27
2018-07-16T18:44:50.523Z,6.50
2018-07-16T18:47:18.573Z,6.00
2018-07-16T18:49:46.659Z,5.50
2018-07-16T18:52:14.708Z,5.10
2018-07-16T18:54:42.744Z,5.73
2018-07-16T18:57:10.836Z,6.10
2018-07-16T18:59:39.010Z,4.90
2018-07-16T19:02:07.135Z,5.03
2018-07-16T19:04:35.221Z,5.07
2018-07-16T19:07:05.106Z,6.83
2018-07-16T19:09:33.996Z,5.00
2018-07-16T19:12:02.453Z,6.40
2018-07-16T19:14:30.847Z,6.30
2018-07-16T19:17:00.231Z,4.57
2018-07-16T19:19:28.637Z,4.80
2018-07-16T19:21:57.057Z,4.93
2018-07-16T19:24:25.362Z,5.13
2018-07-16T19:26:53.889Z,4.53
2018-07-16T19:29:22.273Z,4.50
2018-07-16T19:31:50.783Z,5.33
2018-07-16T19:34:18.805Z,5.10
2018-07-16T19:36:47.290Z,5.53
2018-07-16T19:39:15.295Z,4.70
2018-07-16T19:41:43.253Z,4.87
2018-07-16T19:44:11.449Z,4.87
2018-07-16T19:46:39.475Z,4.80
2018-07-16T19:49:07.459Z,5.00
2018-07-16T19:51:35.893Z,6.40
2018-07-16T19:54:04.012Z,5.77
2018-07-16T19:56:33.039Z,5.40
2018-07-16T19:59:01.192Z,5.53
2018-07-16T20:01:29.548Z,5.27
2018-07-16T20:03:58.038Z,4.77
2018-07-16T20:06:26.342Z,5.43
2018-07-16T20:08:55.146Z,6.00
2018-07-16T20:11:24.163Z,4.87
2018-07-16T20:13:52.394Z,5.90
2018-07-16T20:16:20.830Z,4.87
2018-07-16T20:18:50.402Z,5.27
2018-07-16T20:21:18.740Z,5.07
2018-07-16T20:23:46.824Z,5.63
2018-07-16T20:26:14.808Z,4.67
2018-07-16T20:28:42.904Z,4.97
2018-07-16T20:31:10.913Z,6.47
2018-07-16T20:33:39.097Z,5.27
2018-07-16T20:36:07.121Z,5.47
2018-07-16T20:38:35.112Z,5.90
2018-07-16T20:41:03.422Z,6.30
2018-07-16T20:43:31.626Z,6.30
2018-07-16T20:45:59.847Z,5.93
2018-07-16T20:48:28.688Z,6.50
2018-07-16T20:50:57.163Z,5.70
2018-07-16T20:53:25.352Z,5.90
2018-07-16T20:55:53.434Z,6.10
2018-07-16T20:58:21.461Z,5.47
2018-07-16T21:00:49.509Z,7.10
2018-07-16T21:03:17.496Z,6.13
2018-07-16T21:05:46.345Z,6.47
2018-07-16T21:08:14.336Z,7.20
2018-07-16T21:10:42.287Z,7.43
2018-07-16T21:13:10.238Z,7.70
2018-07-16T21:15:38.612Z,6.67
2018-07-16T21:18:06.989Z,8.80
2018-07-16T21:20:35.833Z,7.50
2018-07-16T21:23:04.131Z,7.60
2018-07-16T21:25:33.075Z,7.40
2018-07-16T21:28:01.719Z,7.70
2018-07-16T21:30:30.183Z,7.93
2018-07-16T21:32:59.396Z,9.03
2018-07-16T21:35:28.198Z,7.77
2018-07-16T21:37:56.989Z,7.03
2018-07-16T21:40:25.345Z,8.73
2018-07-16T21:42:53.326Z,8.70
2018-07-16T21:45:21.288Z,9.00
2018-07-16T21:47:49.615Z,8.10
2018-07-16T21:50:17.828Z,8.63
2018-07-16T21:52:46.574Z,9.17
2018-07-16T21:55:14.516Z,8.37
2018-07-16T21:57:42.487Z,8.20
2018-07-16T22:00:14.992Z,8.47
2018-07-16T22:02:43.160Z,9.17
2018-07-16T22:05:11.158Z,9.23
2018-07-16T22:07:39.568Z,9.80
2018-07-16T22:10:07.704Z,9.63
2018-07-16T22:12:35.795Z,9.80
2018-07-16T22:15:04.015Z,10.23
2018-07-16T22:17:32.285Z,9.33
2018-07-16T22:20:00.953Z,10.53
2018-07-16T22:22:29.311Z,9.00
2018-07-16T22:24:57.946Z,10.00
2018-07-16T22:27:26.179Z,8.47
2018-07-16T22:29:54.152Z,9.30
2018-07-16T22:32:22.190Z,9.20
2018-07-16T22:34:50.476Z,9.63
2018-07-16T22:37:18.685Z,8.70
2018-07-16T22:39:47.836Z,10.20
2018-07-16T22:42:16.058Z,9.87
2018-07-16T22:44:44.077Z,9.10
2018-07-16T22:47:12.081Z,10.97
2018-07-16T22:49:40.071Z,9.17
2018-07-16T22:52:08.094Z,9.67
2018-07-16T22:54:36.221Z,9.00
2018-07-16T22:57:04.848Z,8.20
2018-07-16T22:59:33.103Z,9.07
2018-07-16T23:02:01.251Z,8.00
2018-07-16T23:04:29.515Z,7.93
2018-07-16T23:06:57.818Z,8.33
2018-07-16T23:09:26.357Z,9.13
2018-07-16T23:11:54.612Z,9.43
2018-07-16T23:14:22.637Z,8.97
2018-07-16T23:16:50.716Z,8.70
2018-07-16T23:19:18.902Z,8.63
2018-07-16T23:21:47.388Z,9.23
2018-07-16T23:24:15.433Z,7.83
2018-07-16T23:26:43.402Z,9.57
2018-07-16T23:29:11.395Z,10.30
2018-07-16T23:31:39.375Z,10.00
2018-07-16T23:34:08.414Z,9.80
2018-07-16T23:36:36.449Z,10.23
2018-07-16T23:39:05.609Z,10.60
2018-07-16T23:41:33.915Z,11.10
2018-07-16T23:44:02.032Z,10.37
2018-07-16T23:46:30.870Z,11.40
2018-07-16T23:48:59.159Z,11.83
2018-07-16T23:51:27.594Z,12.50
2018-07-16T23:53:55.754Z,9.70
2018-07-16T23:56:23.785Z,10.37
2018-07-16T23:58:51.784Z,11.40
